createdAt,value
2018-09-18T00:01:28.231Z,5.07
2018-09-18T00:03:56.719Z,5.20
2018-09-18T00:06:25.020Z,5.30
2018-09-18T00:08:53.315Z,4.90
2018-09-18T00:11:21.657Z,4.67
2018-09-18T00:13:49.998Z,5.10
2018-09-18T00:16:18.279Z,5.30
2018-09-18T00:18:46.593Z,4.63
2018-09-18T00:21:14.989Z,5.17
2018-09-18T00:23:43.299Z,4.57
2018-09-18T00:26:11.590Z,5.03
2018-09-18T00:28:39.912Z,5.63
2018-09-18T00:31:08.270Z,5.20
2018-09-18T00:33:36.560Z,5.57
2018-09-18T00:36:04.885Z,5.50
2018-09-18T00:38:33.222Z,4.83
2018-09-18T00:41:01.568Z,4.70
2018-09-18T00:43:29.855Z,5.00
2018-09-18T00:45:58.167Z,5.43
2018-09-18T00:48:26.508Z,5.07
2018-09-18T00:50:54.814Z,5.10
2018-09-18T00:53:23.099Z,5.00
2018-09-18T00:55:51.570Z,5.40
2018-09-18T00:58:19.894Z,5.83
2018-09-18T01:00:48.201Z,5.20
2018-09-18T01:03:16.510Z,5.30
2018-09-18T01:05:44.842Z,4.93
2018-09-18T01:08:13.118Z,4.93
2018-09-18T01:10:41.480Z,4.87
2018-09-18T01:13:09.771Z,5.20
2018-09-18T01:15:38.110Z,4.83
2018-09-18T01:18:06.551Z,5.00
2018-09-18T01:20:34.850Z,5.40
2018-09-18T01:23:03.169Z,4.93
2018-09-18T01:25:31.480Z,5.10
2018-09-18T01:27:59.774Z,5.50
2018-09-18T01:30:28.082Z,5.30
2018-09-18T01:32:56.386Z,5.10
2018-09-18T01:35:24.726Z,5.13
2018-09-18T01:37:53.047Z,5.33
2018-09-18T01:40:21.538Z,5.80
2018-09-18T01:42:49.845Z,5.90
2018-09-18T01:45:18.274Z,5.47
2018-09-18T01:47:46.640Z,5.37
2018-09-18T01:50:14.969Z,5.20
2018-09-18T01:52:43.336Z,5.30
2018-09-18T01:55:11.659Z,4.90
2018-09-18T01:57:39.975Z,5.60
2018-09-18T02:00:08.430Z,5.70
2018-09-18T02:02:36.795Z,5.67
2018-09-18T02:05:05.092Z,5.60
2018-09-18T02:07:34.279Z,6.10
2018-09-18T02:10:02.584Z,6.03
2018-09-18T02:12:30.954Z,5.70
2018-09-18T02:14:59.245Z,5.60
2018-09-18T02:17:27.608Z,6.10
2018-09-18T02:19:55.906Z,5.47
2018-09-18T02:22:24.229Z,5.70
2018-09-18T02:24:52.525Z,5.87
2018-09-18T02:27:20.836Z,5.87
2018-09-18T02:29:49.118Z,5.87
2018-09-18T02:32:17.499Z,6.10
2018-09-18T02:34:45.906Z,6.07
2018-09-18T02:37:14.260Z,5.80
2018-09-18T02:39:42.543Z,5.33
2018-09-18T02:42:11.085Z,5.93
2018-09-18T02:44:39.475Z,5.50
2018-09-18T02:47:07.752Z,6.07
2018-09-18T02:49:36.106Z,5.80
2018-09-18T02:52:04.406Z,6.20
2018-09-18T02:54:32.731Z,5.60
2018-09-18T02:57:00.996Z,5.87
2018-09-18T02:59:29.343Z,5.67
2018-09-18T03:01:57.639Z,5.57
2018-09-18T03:04:25.995Z,6.07
2018-09-18T03:06:54.366Z,6.03
2018-09-18T03:09:22.689Z,5.87
2018-09-18T03:11:50.980Z,5.70
2018-09-18T03:14:19.287Z,6.13
2018-09-18T03:16:47.620Z,5.80
2018-09-18T03:19:15.962Z,5.80
2018-09-18T03:21:44.268Z,5.70
2018-09-18T03:24:12.582Z,5.67
2018-09-18T03:26:40.858Z,5.47
2018-09-18T03:29:09.203Z,5.63
2018-09-18T03:31:37.546Z,5.67
2018-09-18T03:34:05.867Z,5.77
2018-09-18T03:36:34.183Z,5.77
2018-09-18T03:39:02.495Z,5.77
2018-09-18T03:41:30.778Z,5.47
2018-09-18T03:43:59.109Z,5.53
2018-09-18T03:46:27.391Z,5.83
2018-09-18T03:48:55.714Z,5.93
2018-09-18T03:51:24.028Z,5.53
2018-09-18T03:53:52.314Z,5.37
2018-09-18T03:56:20.657Z,5.40
2018-09-18T03:58:50.632Z,5.33
2018-09-18T04:01:19.121Z,5.53
2018-09-18T04:03:47.754Z,5.70
2018-09-18T04:06:16.494Z,5.97
2018-09-18T04:08:44.859Z,5.67
2018-09-18T04:11:13.226Z,5.93
2018-09-18T04:13:41.578Z,5.47
2018-09-18T04:16:09.864Z,5.53
2018-09-18T04:18:38.203Z,6.03
2018-09-18T04:21:06.666Z,5.53
2018-09-18T04:23:35.084Z,5.67
2018-09-18T04:26:03.452Z,5.57
2018-09-18T04:28:31.768Z,5.53
2018-09-18T04:31:00.114Z,5.90
2018-09-18T04:33:28.498Z,5.13
2018-09-18T04:35:56.802Z,5.67
2018-09-18T04:38:25.142Z,5.77
2018-09-18T04:40:53.530Z,5.40
2018-09-18T04:43:21.942Z,6.00
2018-09-18T04:45:50.368Z,5.80
2018-09-18T04:48:18.589Z,5.30
2018-09-18T04:50:47.042Z,5.70
2018-09-18T04:53:15.322Z,5.50
2018-09-18T04:55:43.657Z,5.60
2018-09-18T04:58:11.949Z,5.50
2018-09-18T05:00:40.327Z,5.50
2018-09-18T05:03:08.617Z,5.50
2018-09-18T05:05:36.939Z,5.57
2018-09-18T05:08:05.357Z,5.60
2018-09-18T05:10:33.662Z,6.00
2018-09-18T05:13:01.972Z,5.63
2018-09-18T05:15:30.323Z,6.37
2018-09-18T05:17:58.693Z,6.07
2018-09-18T05:20:27.250Z,5.97
2018-09-18T05:22:55.535Z,6.07
2018-09-18T05:25:24.639Z,6.07
2018-09-18T05:27:53.039Z,6.33
2018-09-18T05:30:21.454Z,6.23
2018-09-18T05:32:50.352Z,5.67
2018-09-18T05:35:18.824Z,6.20
2018-09-18T05:37:47.386Z,6.00
2018-09-18T05:40:16.417Z,5.80
2018-09-18T05:42:45.058Z,6.93
2018-09-18T05:45:13.485Z,6.17
2018-09-18T05:47:41.884Z,6.13
2018-09-18T05:50:10.312Z,6.07
2018-09-18T05:52:38.577Z,5.97
2018-09-18T05:55:06.908Z,6.73
2018-09-18T05:57:37.213Z,6.40
2018-09-18T06:00:06.149Z,6.30
2018-09-18T06:02:41.585Z,6.97
2018-09-18T06:05:10.229Z,6.83
2018-09-18T06:07:38.740Z,7.10
2018-09-18T06:10:07.380Z,7.10
2018-09-18T06:12:35.715Z,6.70
2018-09-18T06:15:04.086Z,6.80
2018-09-18T06:17:32.638Z,7.00
2018-09-18T06:20:01.018Z,7.00
2018-09-18T06:22:30.492Z,6.50
2018-09-18T06:25:00.036Z,7.10
2018-09-18T06:27:28.410Z,7.20
2018-09-18T06:29:56.750Z,7.20
2018-09-18T06:32:25.102Z,7.93
2018-09-18T06:34:53.847Z,7.67
2018-09-18T06:37:23.203Z,7.40
2018-09-18T06:39:51.510Z,7.30
2018-09-18T06:42:19.879Z,7.13
2018-09-18T06:44:48.338Z,7.70
2018-09-18T06:47:17.101Z,7.10
2018-09-18T06:49:45.669Z,6.87
2018-09-18T06:52:13.999Z,7.27
2018-09-18T06:54:42.278Z,7.30
2018-09-18T06:57:10.601Z,7.47
2018-09-18T06:59:38.908Z,7.07
2018-09-18T07:02:07.293Z,6.87
2018-09-18T07:04:35.659Z,6.80
2018-09-18T07:07:03.983Z,7.07
2018-09-18T07:09:32.305Z,6.40
2018-09-18T07:12:00.649Z,6.10
2018-09-18T07:14:28.968Z,6.83
2018-09-18T07:16:57.307Z,6.87
2018-09-18T07:19:25.626Z,6.90
2018-09-18T07:21:53.959Z,5.40
2018-09-18T07:24:22.254Z,5.23
2018-09-18T07:26:50.639Z,5.30
2018-09-18T07:29:19.070Z,5.07
2018-09-18T07:31:47.391Z,4.93
2018-09-18T07:34:15.696Z,5.00
2018-09-18T07:36:44.025Z,5.10
2018-09-18T07:39:12.887Z,4.80
2018-09-18T07:41:41.248Z,5.00
2018-09-18T07:44:09.816Z,4.33
2018-09-18T07:46:38.155Z,4.63
2018-09-18T07:49:06.683Z,4.63
2018-09-18T07:51:35.745Z,4.60
2018-09-18T07:54:04.143Z,4.57
2018-09-18T07:56:32.957Z,4.40
2018-09-18T07:59:02.041Z,4.67
2018-09-18T08:01:30.973Z,4.40
2018-09-18T08:03:59.398Z,4.78
2018-09-18T08:06:27.759Z,4.50
2018-09-18T08:08:56.074Z,4.62
2018-09-18T08:11:24.447Z,4.33
2018-09-18T08:13:52.735Z,4.30
2018-09-18T08:16:21.239Z,4.05
2018-09-18T08:18:49.522Z,4.60
2018-09-18T08:21:17.844Z,4.30
2018-09-18T08:23:46.202Z,4.58
2018-09-18T08:26:14.539Z,4.60
2018-09-18T08:28:42.938Z,4.83
2018-09-18T08:31:11.271Z,4.33
2018-09-18T08:33:39.651Z,4.60
2018-09-18T08:36:07.931Z,4.50
2018-09-18T08:38:36.251Z,4.67
2018-09-18T08:41:04.745Z,4.40
2018-09-18T08:43:33.193Z,4.90
2018-09-18T08:46:01.608Z,4.85
2018-09-18T08:48:31.320Z,4.37
2018-09-18T08:51:00.865Z,4.17
2018-09-18T08:53:29.681Z,4.17
2018-09-18T08:55:58.076Z,4.37
2018-09-18T08:58:26.607Z,4.03
2018-09-18T09:00:54.933Z,4.33
2018-09-18T09:03:23.378Z,4.42
2018-09-18T09:05:51.671Z,4.10
2018-09-18T09:08:20.086Z,4.42
2018-09-18T09:10:48.416Z,3.77
2018-09-18T09:13:16.743Z,4.10
2018-09-18T09:15:45.067Z,4.30
2018-09-18T09:18:13.539Z,4.42
2018-09-18T09:20:41.777Z,4.47
2018-09-18T09:23:10.077Z,4.17
2018-09-18T09:25:38.413Z,4.08
2018-09-18T09:28:07.032Z,4.37
2018-09-18T09:30:35.385Z,4.45
2018-09-18T09:33:03.735Z,4.35
2018-09-18T09:35:32.085Z,3.95
2018-09-18T09:38:00.439Z,4.30
2018-09-18T09:40:28.747Z,3.85
2018-09-18T09:42:57.102Z,4.03
2018-09-18T09:45:25.408Z,4.30
2018-09-18T09:47:53.852Z,4.12
2018-09-18T09:50:22.159Z,3.95
2018-09-18T09:52:50.472Z,4.30
2018-09-18T09:55:18.915Z,4.30
2018-09-18T09:57:47.224Z,4.20
2018-09-18T10:00:20.888Z,4.10
2018-09-18T10:02:49.508Z,4.20
2018-09-18T10:05:18.808Z,4.35
2018-09-18T10:07:47.427Z,4.47
2018-09-18T10:10:15.746Z,4.25
2018-09-18T10:12:44.134Z,4.45
2018-09-18T10:15:12.472Z,4.05
2018-09-18T10:17:41.003Z,4.62
2018-09-18T10:20:09.483Z,4.83
2018-09-18T10:22:37.856Z,4.37
2018-09-18T10:25:06.356Z,4.55
2018-09-18T10:27:34.712Z,4.40
2018-09-18T10:30:03.075Z,4.50
2018-09-18T10:32:31.409Z,4.45
2018-09-18T10:34:59.778Z,4.50
2018-09-18T10:37:28.065Z,4.53
2018-09-18T10:39:56.600Z,4.40
2018-09-18T10:42:25.041Z,4.58
2018-09-18T10:44:53.406Z,4.30
2018-09-18T10:47:21.733Z,4.92
2018-09-18T10:49:50.059Z,4.15
2018-09-18T10:52:18.382Z,4.78
2018-09-18T10:54:46.718Z,4.80
2018-09-18T10:57:15.120Z,4.22
2018-09-18T10:59:43.594Z,4.92
2018-09-18T11:02:12.046Z,4.67
2018-09-18T11:04:40.253Z,4.65
2018-09-18T11:07:08.695Z,5.05
2018-09-18T11:09:37.068Z,4.60
2018-09-18T11:12:05.380Z,4.33
2018-09-18T11:14:33.804Z,4.40
2018-09-18T11:17:02.117Z,4.58
2018-09-18T11:19:30.410Z,4.90
2018-09-18T11:21:58.808Z,4.83
2018-09-18T11:24:27.129Z,4.70
2018-09-18T11:26:55.432Z,5.00
2018-09-18T11:29:23.772Z,4.95
2018-09-18T11:31:52.144Z,4.83
2018-09-18T11:34:20.463Z,4.53
2018-09-18T11:36:48.758Z,4.70
2018-09-18T11:39:17.238Z,4.67
2018-09-18T11:41:45.513Z,5.05
2018-09-18T11:44:13.806Z,4.33
2018-09-18T11:46:42.210Z,4.72
2018-09-18T11:49:10.458Z,4.28
2018-09-18T11:51:38.788Z,4.55
2018-09-18T11:54:07.295Z,4.60
2018-09-18T11:56:35.685Z,4.70
2018-09-18T11:59:04.009Z,4.45
2018-09-18T12:01:32.301Z,4.65
2018-09-18T12:04:00.851Z,4.58
2018-09-18T12:06:29.155Z,4.83
2018-09-18T12:08:57.473Z,4.20
2018-09-18T12:11:25.807Z,5.17
2018-09-18T12:13:54.250Z,4.70
2018-09-18T12:16:22.530Z,4.60
2018-09-18T12:18:50.835Z,4.70
2018-09-18T12:21:19.159Z,4.62
2018-09-18T12:23:47.518Z,4.62
2018-09-18T12:26:15.909Z,4.80
2018-09-18T12:28:44.269Z,4.90
2018-09-18T12:31:12.638Z,4.83
2018-09-18T12:33:40.988Z,4.53
2018-09-18T12:36:09.715Z,4.12
2018-09-18T12:38:38.037Z,4.20
2018-09-18T12:41:06.479Z,3.90
2018-09-18T12:43:35.004Z,4.40
2018-09-18T12:46:03.360Z,4.83
2018-09-18T12:48:32.038Z,4.05
2018-09-18T12:51:00.472Z,3.90
2018-09-18T12:53:28.707Z,3.90
2018-09-18T12:55:57.025Z,3.80
2018-09-18T12:58:25.347Z,4.47
2018-09-18T13:00:53.648Z,3.90
2018-09-18T13:03:21.955Z,3.70
2018-09-18T13:05:50.466Z,3.60
2018-09-18T13:08:19.292Z,4.00
2018-09-18T13:10:47.778Z,3.98
2018-09-18T13:13:16.836Z,4.00
2018-09-18T13:15:45.162Z,3.80
2018-09-18T13:18:13.722Z,3.72
2018-09-18T13:20:42.215Z,3.85
2018-09-18T13:23:10.623Z,3.80
2018-09-18T13:25:39.542Z,3.62
2018-09-18T13:28:08.197Z,3.85
2018-09-18T13:30:36.566Z,3.75
2018-09-18T13:33:04.976Z,4.22
2018-09-18T13:35:33.298Z,3.90
2018-09-18T13:38:02.155Z,4.20
2018-09-18T13:40:30.937Z,4.10
2018-09-18T13:42:59.416Z,4.30
2018-09-18T13:45:27.872Z,3.95
2018-09-18T13:47:56.331Z,4.40
2018-09-18T13:50:25.026Z,4.00
2018-09-18T13:52:53.350Z,4.03
2018-09-18T13:55:21.957Z,4.25
2018-09-18T13:57:50.389Z,3.87
2018-09-18T14:00:19.015Z,4.20
2018-09-18T14:02:47.406Z,4.17
2018-09-18T14:05:15.748Z,4.15
2018-09-18T14:07:45.178Z,3.98
2018-09-18T14:10:15.264Z,4.10
2018-09-18T14:12:44.038Z,4.03
2018-09-18T14:15:12.659Z,3.95
2018-09-18T14:17:40.879Z,4.33
2018-09-18T14:20:09.756Z,3.72
2018-09-18T14:22:38.310Z,4.25
2018-09-18T14:25:06.648Z,4.00
2018-09-18T14:27:35.083Z,4.00
2018-09-18T14:30:03.996Z,3.90
2018-09-18T14:32:32.728Z,4.20
2018-09-18T14:35:01.606Z,4.10
2018-09-18T14:37:30.095Z,3.70
2018-09-18T14:39:58.448Z,3.80
2018-09-18T14:42:26.819Z,4.10
2018-09-18T14:44:55.102Z,4.08
2018-09-18T14:47:23.432Z,3.60
2018-09-18T14:49:51.807Z,4.50
2018-09-18T14:52:20.142Z,4.08
2018-09-18T14:54:48.794Z,3.90
2018-09-18T14:57:17.178Z,3.98
2018-09-18T14:59:46.264Z,4.30
2018-09-18T15:02:14.565Z,4.70
2018-09-18T15:04:42.874Z,4.20
2018-09-18T15:07:11.260Z,4.17
2018-09-18T15:09:39.554Z,4.20
2018-09-18T15:12:07.859Z,4.53
2018-09-18T15:14:36.245Z,4.03
2018-09-18T15:17:04.555Z,3.87
2018-09-18T15:19:32.831Z,3.95
2018-09-18T15:22:01.157Z,3.95
2018-09-18T15:24:29.454Z,4.10
2018-09-18T15:26:57.817Z,4.15
2018-09-18T15:29:26.154Z,4.22
2018-09-18T15:31:54.541Z,4.35
2018-09-18T15:34:22.833Z,4.58
2018-09-18T15:36:51.147Z,4.20
2018-09-18T15:39:19.583Z,4.35
2018-09-18T15:41:47.920Z,4.00
2018-09-18T15:44:16.305Z,4.47
2018-09-18T15:46:44.658Z,4.30
2018-09-18T15:49:12.967Z,4.33
2018-09-18T15:51:41.371Z,4.25
2018-09-18T15:54:09.732Z,4.50
2018-09-18T15:56:38.099Z,4.62
2018-09-18T15:59:06.529Z,4.78
2018-09-18T16:01:34.836Z,4.72
2018-09-18T16:04:03.119Z,4.30
2018-09-18T16:06:31.445Z,4.20
2018-09-18T16:09:00.151Z,4.65
2018-09-18T16:11:28.489Z,4.22
2018-09-18T16:13:56.896Z,4.20
2018-09-18T16:16:25.271Z,4.03
2018-09-18T16:18:53.846Z,4.90
2018-09-18T16:21:22.922Z,4.37
2018-09-18T16:23:51.352Z,4.58
2018-09-18T16:26:19.773Z,4.60
2018-09-18T16:28:48.151Z,4.42
2018-09-18T16:31:16.540Z,4.10
2018-09-18T16:33:44.883Z,4.53
2018-09-18T16:36:13.515Z,4.72
2018-09-18T16:38:41.925Z,4.70
2018-09-18T16:41:10.216Z,4.85
2018-09-18T16:43:38.629Z,4.90
2018-09-18T16:46:07.053Z,4.62
2018-09-18T16:48:35.457Z,4.62
2018-09-18T16:51:03.846Z,4.40
2018-09-18T16:53:32.152Z,4.25
2018-09-18T16:56:00.495Z,4.72
2018-09-18T16:58:28.846Z,4.80
2018-09-18T17:00:57.613Z,4.90
2018-09-18T17:03:26.014Z,4.30
2018-09-18T17:05:54.374Z,4.35
2018-09-18T17:08:22.671Z,4.60
2018-09-18T17:10:51.115Z,4.65
2018-09-18T17:13:19.520Z,4.67
2018-09-18T17:15:47.917Z,4.60
2018-09-18T17:18:16.245Z,4.53
2018-09-18T17:20:44.589Z,4.65
2018-09-18T17:23:13.621Z,4.62
2018-09-18T17:25:41.932Z,4.58
2018-09-18T17:28:10.366Z,4.75
2018-09-18T17:30:38.657Z,4.70
2018-09-18T17:33:06.997Z,4.87
2018-09-18T17:35:35.361Z,4.62
2018-09-18T17:38:03.628Z,4.58
2018-09-18T17:40:31.942Z,4.78
2018-09-18T17:43:00.247Z,4.92
2018-09-18T17:45:28.572Z,5.00
2018-09-18T17:47:56.954Z,5.00
2018-09-18T17:50:25.369Z,4.92
2018-09-18T17:52:53.637Z,4.92
2018-09-18T17:55:22.069Z,5.03
2018-09-18T17:57:50.404Z,5.20
2018-09-18T18:00:18.819Z,5.37
2018-09-18T18:02:47.169Z,4.83
2018-09-18T18:05:15.515Z,5.37
2018-09-18T18:07:43.789Z,4.90
2018-09-18T18:10:12.141Z,5.12
2018-09-18T18:12:40.532Z,4.95
2018-09-18T18:15:08.867Z,5.10
2018-09-18T18:17:37.487Z,5.47
2018-09-18T18:20:06.022Z,4.97
2018-09-18T18:22:34.310Z,4.95
2018-09-18T18:25:02.844Z,5.10
2018-09-18T18:27:31.197Z,4.97
2018-09-18T18:29:59.651Z,4.90
2018-09-18T18:32:27.985Z,4.83
2018-09-18T18:34:56.362Z,5.22
2018-09-18T18:37:24.811Z,4.90
2018-09-18T18:39:53.334Z,5.00
2018-09-18T18:42:22.897Z,5.10
2018-09-18T18:44:51.431Z,5.33
2018-09-18T18:47:20.711Z,5.20
2018-09-18T18:49:49.241Z,5.47
2018-09-18T18:52:17.658Z,4.90
2018-09-18T18:54:46.070Z,4.90
2018-09-18T18:57:14.489Z,5.83
2018-09-18T18:59:45.835Z,4.78
2018-09-18T19:02:15.403Z,4.97
2018-09-18T19:04:44.316Z,5.00
2018-09-18T19:07:15.009Z,5.45
2018-09-18T19:09:44.648Z,5.15
2018-09-18T19:12:13.457Z,5.20
2018-09-18T19:14:42.554Z,5.53
2018-09-18T19:17:11.929Z,5.15
2018-09-18T19:19:40.903Z,5.20
2018-09-18T19:22:09.559Z,5.50
2018-09-18T19:24:37.991Z,5.25
2018-09-18T19:27:07.262Z,5.00
2018-09-18T19:29:36.226Z,5.33
2018-09-18T19:32:04.582Z,5.55
2018-09-18T19:34:32.994Z,5.25
2018-09-18T19:37:03.636Z,5.47
2018-09-18T19:39:33.257Z,5.08
2018-09-18T19:42:01.602Z,5.30
2018-09-18T19:44:30.079Z,5.75
2018-09-18T19:46:58.887Z,5.30
2018-09-18T19:49:27.354Z,5.62
2018-09-18T19:51:55.883Z,5.92
2018-09-18T19:54:24.381Z,5.92
2018-09-18T19:56:53.479Z,6.08
2018-09-18T19:59:22.057Z,6.00
2018-09-18T20:01:50.464Z,6.40
2018-09-18T20:04:18.925Z,6.40
2018-09-18T20:06:47.991Z,5.85
2018-09-18T20:09:17.403Z,6.30
2018-09-18T20:11:45.948Z,5.87
2018-09-18T20:14:14.448Z,6.50
2018-09-18T20:16:42.903Z,6.70
2018-09-18T20:19:11.534Z,6.85
2018-09-18T20:21:40.304Z,6.25
2018-09-18T20:24:09.416Z,6.10
2018-09-18T20:26:38.834Z,6.70
2018-09-18T20:29:07.890Z,6.50
2018-09-18T20:31:36.497Z,6.10
2018-09-18T20:34:05.268Z,6.03
2018-09-18T20:36:34.476Z,5.70
2018-09-18T20:39:03.992Z,6.10
2018-09-18T20:41:34.165Z,5.92
2018-09-18T20:44:03.213Z,5.83
2018-09-18T20:46:32.770Z,6.40
2018-09-18T20:49:01.483Z,6.55
2018-09-18T20:51:30.413Z,6.40
2018-09-18T20:53:59.426Z,6.40
2018-09-18T20:56:27.842Z,6.22
2018-09-18T20:58:56.298Z,6.90
2018-09-18T21:01:24.703Z,8.63
2018-09-18T21:03:53.442Z,6.72
2018-09-18T21:06:21.975Z,6.58
2018-09-18T21:08:51.268Z,6.53
2018-09-18T21:11:19.713Z,6.58
2018-09-18T21:13:48.131Z,6.00
2018-09-18T21:16:16.471Z,6.00
2018-09-18T21:18:44.944Z,5.95
2018-09-18T21:21:13.374Z,5.97
2018-09-18T21:23:41.714Z,5.78
2018-09-18T21:26:19.719Z,5.70
2018-09-18T21:28:48.557Z,5.58
2018-09-18T21:31:17.425Z,5.80
2018-09-18T21:33:45.925Z,5.65
2018-09-18T21:38:54.272Z,5.83
2018-09-18T21:41:22.583Z,5.45
2018-09-18T21:43:50.850Z,6.10
2018-09-18T21:46:19.339Z,5.87
2018-09-18T21:48:47.727Z,6.25
2018-09-18T21:51:16.109Z,5.92
2018-09-18T21:53:44.410Z,6.25
2018-09-18T21:56:12.799Z,6.03
2018-09-18T21:58:41.194Z,6.03
2018-09-18T22:01:09.700Z,5.92
2018-09-18T22:03:38.127Z,5.87
2018-09-18T22:06:06.461Z,5.85
2018-09-18T22:08:36.626Z,6.00
2018-09-18T22:11:05.023Z,5.95
2018-09-18T22:13:33.434Z,6.05
2018-09-18T22:16:01.791Z,6.05
2018-09-18T22:18:30.095Z,6.37
2018-09-18T22:20:58.429Z,6.10
2018-09-18T22:23:26.745Z,5.78
2018-09-18T22:25:55.089Z,6.00
2018-09-18T22:28:23.395Z,5.78
2018-09-18T22:30:51.723Z,6.15
2018-09-18T22:33:20.129Z,5.53
2018-09-18T22:35:48.437Z,5.72
2018-09-18T22:38:16.816Z,6.10
2018-09-18T22:40:45.204Z,5.85
2018-09-18T22:43:13.709Z,5.30
2018-09-18T22:45:41.960Z,6.03
2018-09-18T22:48:10.313Z,5.80
2018-09-18T22:50:38.614Z,6.00
2018-09-18T22:53:06.927Z,5.85
2018-09-18T22:55:35.246Z,5.37
2018-09-18T22:58:02.706Z,5.65
2018-09-18T23:00:31.066Z,5.28
2018-09-18T23:02:59.387Z,5.50
2018-09-18T23:05:27.697Z,5.97
2018-09-18T23:07:56.094Z,5.58
2018-09-18T23:10:24.393Z,5.60
2018-09-18T23:12:52.791Z,5.40
2018-09-18T23:15:21.109Z,5.70
2018-09-18T23:17:49.423Z,5.58
2018-09-18T23:20:17.909Z,5.67
2018-09-18T23:22:46.218Z,5.90
2018-09-18T23:25:14.694Z,5.53
2018-09-18T23:27:43.102Z,5.45
2018-09-18T23:30:11.510Z,5.90
2018-09-18T23:32:39.875Z,5.95
2018-09-18T23:35:08.172Z,5.60
2018-09-18T23:37:36.532Z,5.17
2018-09-18T23:40:04.905Z,5.10
2018-09-18T23:42:33.222Z,5.03
2018-09-18T23:45:01.489Z,5.15
2018-09-18T23:47:29.875Z,5.58
2018-09-18T23:49:58.219Z,5.78
2018-09-18T23:52:26.598Z,5.28
2018-09-18T23:54:55.200Z,4.83
2018-09-18T23:57:23.554Z,5.08
2018-09-18T23:59:51.965Z,5.65
